sensor_id;sensor_type;location;lat;lon;timestamp;P1;durP1;ratioP1;P2;durP2;ratioP2
32637;SDS011;19045;52.268;10.506;2022-09-09T00:01:35;3.05;;;2.00;;
32637;SDS011;19045;52.268;10.506;2022-09-09T00:04:09;4.70;;;1.98;;
32637;SDS011;19045;52.268;10.506;2022-09-09T00:09:11;7.15;;;1.90;;
32637;SDS011;19045;52.268;10.506;2022-09-09T00:11:42;3.38;;;1.88;;
32637;SDS011;19045;52.268;10.506;2022-09-09T00:14:14;3.33;;;1.52;;
32637;SDS011;19045;52.268;10.506;2022-09-09T00:16:50;3.97;;;1.80;;
32637;SDS011;19045;52.268;10.506;2022-09-09T00:19:22;4.25;;;1.50;;
32637;SDS011;19045;52.268;10.506;2022-09-09T00:21:57;4.45;;;1.70;;
32637;SDS011;19045;52.268;10.506;2022-09-09T00:24:36;4.07;;;1.48;;
32637;SDS011;19045;52.268;10.506;2022-09-09T00:27:11;4.55;;;1.40;;
32637;SDS011;19045;52.268;10.506;2022-09-09T00:29:45;4.32;;;1.42;;
32637;SDS011;19045;52.268;10.506;2022-09-09T00:32:19;5.38;;;1.38;;
32637;SDS011;19045;52.268;10.506;2022-09-09T00:34:47;3.95;;;1.67;;
32637;SDS011;19045;52.268;10.506;2022-09-09T00:37:18;7.05;;;1.30;;
32637;SDS011;19045;52.268;10.506;2022-09-09T00:39:47;3.35;;;1.27;;
32637;SDS011;19045;52.268;10.506;2022-09-09T00:42:18;3.63;;;1.25;;
32637;SDS011;19045;52.268;10.506;2022-09-09T00:44:56;5.78;;;1.63;;
32637;SDS011;19045;52.268;10.506;2022-09-09T00:47:34;3.80;;;1.42;;
32637;SDS011;19045;52.268;10.506;2022-09-09T00:50:17;8.15;;;2.10;;
32637;SDS011;19045;52.268;10.506;2022-09-09T00:52:57;3.60;;;1.98;;
32637;SDS011;19045;52.268;10.506;2022-09-09T00:55:33;3.28;;;1.40;;
32637;SDS011;19045;52.268;10.506;2022-09-09T00:58:09;3.45;;;1.40;;
32637;SDS011;19045;52.268;10.506;2022-09-09T01:00:38;4.78;;;1.60;;
32637;SDS011;19045;52.268;10.506;2022-09-09T01:06:00;3.38;;;1.55;;
32637;SDS011;19045;52.268;10.506;2022-09-09T01:11:33;1.95;;;1.52;;
32637;SDS011;19045;52.268;10.506;2022-09-09T01:14:11;2.55;;;1.20;;
32637;SDS011;19045;52.268;10.506;2022-09-09T01:16:45;3.47;;;1.92;;
32637;SDS011;19045;52.268;10.506;2022-09-09T01:19:15;5.95;;;2.05;;
32637;SDS011;19045;52.268;10.506;2022-09-09T01:21:53;4.03;;;1.80;;
32637;SDS011;19045;52.268;10.506;2022-09-09T01:24:30;2.63;;;1.42;;
32637;SDS011;19045;52.268;10.506;2022-09-09T01:27:05;5.85;;;1.80;;
32637;SDS011;19045;52.268;10.506;2022-09-09T01:29:34;4.85;;;2.00;;
32637;SDS011;19045;52.268;10.506;2022-09-09T01:32:02;2.70;;;1.40;;
32637;SDS011;19045;52.268;10.506;2022-09-09T01:34:50;4.18;;;2.28;;
32637;SDS011;19045;52.268;10.506;2022-09-09T01:37:18;2.58;;;1.58;;
32637;SDS011;19045;52.268;10.506;2022-09-09T01:39:44;4.55;;;1.92;;
32637;SDS011;19045;52.268;10.506;2022-09-09T01:42:12;5.88;;;1.50;;
32637;SDS011;19045;52.268;10.506;2022-09-09T01:44:40;4.10;;;1.40;;
32637;SDS011;19045;52.268;10.506;2022-09-09T01:47:07;5.18;;;1.48;;
32637;SDS011;19045;52.268;10.506;2022-09-09T01:49:34;3.47;;;1.38;;
32637;SDS011;19045;52.268;10.506;2022-09-09T01:52:02;3.80;;;1.35;;
32637;SDS011;19045;52.268;10.506;2022-09-09T01:54:30;1.48;;;1.00;;
32637;SDS011;19045;52.268;10.506;2022-09-09T01:57:01;2.75;;;1.17;;
32637;SDS011;19045;52.268;10.506;2022-09-09T01:59:42;5.15;;;1.30;;
32637;SDS011;19045;52.268;10.506;2022-09-09T02:02:17;2.85;;;1.10;;
32637;SDS011;19045;52.268;10.506;2022-09-09T02:04:45;1.77;;;1.00;;
32637;SDS011;19045;52.268;10.506;2022-09-09T02:07:28;4.40;;;1.45;;
32637;SDS011;19045;52.268;10.506;2022-09-09T02:10:05;2.92;;;1.45;;
32637;SDS011;19045;52.268;10.506;2022-09-09T02:12:38;6.28;;;1.30;;
32637;SDS011;19045;52.268;10.506;2022-09-09T02:15:11;4.13;;;1.10;;
32637;SDS011;19045;52.268;10.506;2022-09-09T02:17:43;5.88;;;1.33;;
32637;SDS011;19045;52.268;10.506;2022-09-09T02:20:13;2.97;;;1.23;;
32637;SDS011;19045;52.268;10.506;2022-09-09T02:22:43;3.67;;;1.45;;
32637;SDS011;19045;52.268;10.506;2022-09-09T02:25:12;6.43;;;0.80;;
32637;SDS011;19045;52.268;10.506;2022-09-09T02:27:41;2.13;;;0.57;;
32637;SDS011;19045;52.268;10.506;2022-09-09T02:30:11;2.80;;;0.90;;
32637;SDS011;19045;52.268;10.506;2022-09-09T02:32:40;5.13;;;1.23;;
32637;SDS011;19045;52.268;10.506;2022-09-09T02:35:09;4.05;;;1.42;;
32637;SDS011;19045;52.268;10.506;2022-09-09T02:37:38;2.03;;;0.82;;
32637;SDS011;19045;52.268;10.506;2022-09-09T02:40:10;1.88;;;0.70;;
32637;SDS011;19045;52.268;10.506;2022-09-09T02:42:38;4.25;;;1.33;;
32637;SDS011;19045;52.268;10.506;2022-09-09T02:45:07;3.40;;;1.02;;
32637;SDS011;19045;52.268;10.506;2022-09-09T02:47:35;3.28;;;1.00;;
32637;SDS011;19045;52.268;10.506;2022-09-09T02:50:06;1.70;;;0.90;;
32637;SDS011;19045;52.268;10.506;2022-09-09T02:52:41;2.88;;;0.90;;
32637;SDS011;19045;52.268;10.506;2022-09-09T02:55:16;3.65;;;1.05;;
32637;SDS011;19045;52.268;10.506;2022-09-09T02:57:46;4.03;;;1.42;;
32637;SDS011;19045;52.268;10.506;2022-09-09T03:00:15;5.40;;;1.40;;
32637;SDS011;19045;52.268;10.506;2022-09-09T03:02:41;3.20;;;0.90;;
32637;SDS011;19045;52.268;10.506;2022-09-09T03:05:08;6.22;;;1.20;;
32637;SDS011;19045;52.268;10.506;2022-09-09T03:07:35;3.50;;;1.00;;
32637;SDS011;19045;52.268;10.506;2022-09-09T03:10:01;3.83;;;1.25;;
32637;SDS011;19045;52.268;10.506;2022-09-09T03:12:30;4.20;;;1.38;;
32637;SDS011;19045;52.268;10.506;2022-09-09T03:14:58;1.67;;;0.80;;
32637;SDS011;19045;52.268;10.506;2022-09-09T03:17:25;2.40;;;1.02;;
32637;SDS011;19045;52.268;10.506;2022-09-09T03:19:53;8.15;;;1.52;;
32637;SDS011;19045;52.268;10.506;2022-09-09T03:22:20;5.53;;;1.35;;
32637;SDS011;19045;52.268;10.506;2022-09-09T03:24:47;5.13;;;1.13;;
32637;SDS011;19045;52.268;10.506;2022-09-09T03:27:13;5.63;;;1.33;;
32637;SDS011;19045;52.268;10.506;2022-09-09T03:29:42;3.25;;;1.10;;
32637;SDS011;19045;52.268;10.506;2022-09-09T03:32:10;4.85;;;1.40;;
32637;SDS011;19045;52.268;10.506;2022-09-09T03:34:37;4.95;;;1.10;;
32637;SDS011;19045;52.268;10.506;2022-09-09T03:37:05;3.60;;;1.13;;
32637;SDS011;19045;52.268;10.506;2022-09-09T03:39:31;6.38;;;1.30;;
32637;SDS011;19045;52.268;10.506;2022-09-09T03:41:58;2.58;;;1.27;;
32637;SDS011;19045;52.268;10.506;2022-09-09T03:44:29;4.03;;;1.00;;
32637;SDS011;19045;52.268;10.506;2022-09-09T03:46:57;9.05;;;1.83;;
32637;SDS011;19045;52.268;10.506;2022-09-09T03:49:25;6.53;;;1.40;;
32637;SDS011;19045;52.268;10.506;2022-09-09T03:51:53;3.63;;;1.30;;
32637;SDS011;19045;52.268;10.506;2022-09-09T03:54:21;5.13;;;1.50;;
32637;SDS011;19045;52.268;10.506;2022-09-09T03:56:48;7.20;;;1.67;;
32637;SDS011;19045;52.268;10.506;2022-09-09T03:59:15;6.95;;;1.35;;
32637;SDS011;19045;52.268;10.506;2022-09-09T04:01:42;3.17;;;1.30;;
32637;SDS011;19045;52.268;10.506;2022-09-09T04:04:11;4.35;;;1.30;;
32637;SDS011;19045;52.268;10.506;2022-09-09T04:06:38;5.88;;;1.45;;
32637;SDS011;19045;52.268;10.506;2022-09-09T04:09:04;3.75;;;1.48;;
32637;SDS011;19045;52.268;10.506;2022-09-09T04:11:31;3.85;;;1.27;;
32637;SDS011;19045;52.268;10.506;2022-09-09T04:13:58;4.38;;;1.73;;
32637;SDS011;19045;52.268;10.506;2022-09-09T04:16:25;4.72;;;1.40;;
32637;SDS011;19045;52.268;10.506;2022-09-09T04:18:51;4.30;;;1.30;;
32637;SDS011;19045;52.268;10.506;2022-09-09T04:21:20;7.60;;;1.60;;
32637;SDS011;19045;52.268;10.506;2022-09-09T04:23:48;3.92;;;1.27;;
32637;SDS011;19045;52.268;10.506;2022-09-09T04:26:14;5.57;;;1.60;;
32637;SDS011;19045;52.268;10.506;2022-09-09T04:28:41;4.38;;;1.40;;
32637;SDS011;19045;52.268;10.506;2022-09-09T04:31:08;4.28;;;1.50;;
32637;SDS011;19045;52.268;10.506;2022-09-09T04:33:36;6.10;;;1.67;;
32637;SDS011;19045;52.268;10.506;2022-09-09T04:36:04;6.10;;;1.80;;
32637;SDS011;19045;52.268;10.506;2022-09-09T04:38:33;2.83;;;1.10;;
32637;SDS011;19045;52.268;10.506;2022-09-09T04:41:00;6.72;;;1.40;;
32637;SDS011;19045;52.268;10.506;2022-09-09T04:43:26;2.53;;;1.50;;
32637;SDS011;19045;52.268;10.506;2022-09-09T04:45:53;3.40;;;1.27;;
32637;SDS011;19045;52.268;10.506;2022-09-09T04:48:20;5.97;;;1.52;;
32637;SDS011;19045;52.268;10.506;2022-09-09T04:50:53;3.80;;;2.03;;
32637;SDS011;19045;52.268;10.506;2022-09-09T04:53:21;5.13;;;1.60;;
32637;SDS011;19045;52.268;10.506;2022-09-09T04:55:50;8.23;;;2.20;;
32637;SDS011;19045;52.268;10.506;2022-09-09T04:58:16;9.23;;;2.10;;
32637;SDS011;19045;52.268;10.506;2022-09-09T05:00:43;7.07;;;2.20;;
32637;SDS011;19045;52.268;10.506;2022-09-09T05:03:10;5.70;;;2.10;;
32637;SDS011;19045;52.268;10.506;2022-09-09T05:05:37;3.72;;;1.80;;
32637;SDS011;19045;52.268;10.506;2022-09-09T05:08:04;5.78;;;1.90;;
32637;SDS011;19045;52.268;10.506;2022-09-09T05:10:33;12.77;;;2.28;;
32637;SDS011;19045;52.268;10.506;2022-09-09T05:13:04;7.68;;;1.70;;
32637;SDS011;19045;52.268;10.506;2022-09-09T05:15:31;4.18;;;1.45;;
32637;SDS011;19045;52.268;10.506;2022-09-09T05:17:58;3.95;;;1.77;;
32637;SDS011;19045;52.268;10.506;2022-09-09T05:20:25;6.80;;;1.48;;
32637;SDS011;19045;52.268;10.506;2022-09-09T05:22:52;5.90;;;1.92;;
32637;SDS011;19045;52.268;10.506;2022-09-09T05:25:19;5.53;;;1.77;;
32637;SDS011;19045;52.268;10.506;2022-09-09T05:27:47;6.40;;;2.03;;
32637;SDS011;19045;52.268;10.506;2022-09-09T05:30:15;4.20;;;1.73;;
32637;SDS011;19045;52.268;10.506;2022-09-09T05:32:43;5.30;;;1.77;;
32637;SDS011;19045;52.268;10.506;2022-09-09T05:35:12;5.97;;;2.03;;
32637;SDS011;19045;52.268;10.506;2022-09-09T05:37:39;3.15;;;1.70;;
32637;SDS011;19045;52.268;10.506;2022-09-09T05:40:06;5.97;;;1.80;;
32637;SDS011;19045;52.268;10.506;2022-09-09T05:42:33;6.72;;;1.50;;
32637;SDS011;19045;52.268;10.506;2022-09-09T05:45:00;3.45;;;1.33;;
32637;SDS011;19045;52.268;10.506;2022-09-09T05:47:28;4.15;;;1.80;;
32637;SDS011;19045;52.268;10.506;2022-09-09T05:49:54;4.13;;;1.48;;
32637;SDS011;19045;52.268;10.506;2022-09-09T05:52:21;6.72;;;1.55;;
32637;SDS011;19045;52.268;10.506;2022-09-09T05:54:48;4.88;;;1.50;;
32637;SDS011;19045;52.268;10.506;2022-09-09T05:57:15;5.18;;;1.40;;
32637;SDS011;19045;52.268;10.506;2022-09-09T05:59:42;4.80;;;1.48;;
32637;SDS011;19045;52.268;10.506;2022-09-09T06:02:09;3.65;;;1.60;;
32637;SDS011;19045;52.268;10.506;2022-09-09T06:04:37;3.05;;;1.45;;
32637;SDS011;19045;52.268;10.506;2022-09-09T06:07:04;4.85;;;1.65;;
32637;SDS011;19045;52.268;10.506;2022-09-09T06:09:30;5.00;;;1.80;;
32637;SDS011;19045;52.268;10.506;2022-09-09T06:11:57;7.95;;;1.60;;
32637;SDS011;19045;52.268;10.506;2022-09-09T06:14:24;5.00;;;1.80;;
32637;SDS011;19045;52.268;10.506;2022-09-09T06:16:52;4.15;;;1.70;;
32637;SDS011;19045;52.268;10.506;2022-09-09T06:19:18;5.03;;;1.42;;
32637;SDS011;19045;52.268;10.506;2022-09-09T06:21:47;5.68;;;1.83;;
32637;SDS011;19045;52.268;10.506;2022-09-09T06:24:15;7.20;;;2.05;;
32637;SDS011;19045;52.268;10.506;2022-09-09T06:26:44;9.70;;;2.10;;
32637;SDS011;19045;52.268;10.506;2022-09-09T06:29:11;6.57;;;1.52;;
32637;SDS011;19045;52.268;10.506;2022-09-09T06:31:37;3.72;;;1.13;;
32637;SDS011;19045;52.268;10.506;2022-09-09T06:34:04;5.32;;;1.42;;
32637;SDS011;19045;52.268;10.506;2022-09-09T06:36:33;4.63;;;1.50;;
32637;SDS011;19045;52.268;10.506;2022-09-09T06:39:03;4.97;;;1.55;;
32637;SDS011;19045;52.268;10.506;2022-09-09T06:41:30;6.75;;;1.70;;
32637;SDS011;19045;52.268;10.506;2022-09-09T06:43:58;3.22;;;1.50;;
32637;SDS011;19045;52.268;10.506;2022-09-09T06:46:27;5.07;;;1.27;;
32637;SDS011;19045;52.268;10.506;2022-09-09T06:48:56;3.63;;;1.20;;
32637;SDS011;19045;52.268;10.506;2022-09-09T06:51:25;4.43;;;1.20;;
32637;SDS011;19045;52.268;10.506;2022-09-09T06:53:53;4.88;;;1.30;;
32637;SDS011;19045;52.268;10.506;2022-09-09T06:56:24;6.95;;;1.50;;
32637;SDS011;19045;52.268;10.506;2022-09-09T06:58:53;8.52;;;1.60;;
32637;SDS011;19045;52.268;10.506;2022-09-09T07:01:21;4.28;;;1.38;;
32637;SDS011;19045;52.268;10.506;2022-09-09T07:03:49;6.85;;;1.90;;
32637;SDS011;19045;52.268;10.506;2022-09-09T07:06:17;4.38;;;1.50;;
32637;SDS011;19045;52.268;10.506;2022-09-09T07:08:49;3.10;;;1.30;;
32637;SDS011;19045;52.268;10.506;2022-09-09T07:11:17;4.35;;;1.63;;
32637;SDS011;19045;52.268;10.506;2022-09-09T07:13:46;4.60;;;1.40;;
32637;SDS011;19045;52.268;10.506;2022-09-09T07:16:14;5.30;;;1.80;;
32637;SDS011;19045;52.268;10.506;2022-09-09T07:18:43;8.07;;;1.90;;
32637;SDS011;19045;52.268;10.506;2022-09-09T07:21:10;3.75;;;1.80;;
32637;SDS011;19045;52.268;10.506;2022-09-09T07:23:38;4.90;;;1.60;;
32637;SDS011;19045;52.268;10.506;2022-09-09T07:26:09;5.25;;;1.88;;
32637;SDS011;19045;52.268;10.506;2022-09-09T07:28:37;7.35;;;1.55;;
32637;SDS011;19045;52.268;10.506;2022-09-09T07:31:05;8.00;;;1.83;;
32637;SDS011;19045;52.268;10.506;2022-09-09T07:33:34;5.28;;;1.65;;
32637;SDS011;19045;52.268;10.506;2022-09-09T07:36:05;7.82;;;1.30;;
32637;SDS011;19045;52.268;10.506;2022-09-09T07:38:37;5.07;;;1.45;;
32637;SDS011;19045;52.268;10.506;2022-09-09T07:41:06;5.63;;;1.65;;
32637;SDS011;19045;52.268;10.506;2022-09-09T07:43:37;9.43;;;1.70;;
32637;SDS011;19045;52.268;10.506;2022-09-09T07:46:04;7.50;;;1.20;;
32637;SDS011;19045;52.268;10.506;2022-09-09T07:48:32;6.30;;;1.80;;
32637;SDS011;19045;52.268;10.506;2022-09-09T07:51:06;10.43;;;1.63;;
32637;SDS011;19045;52.268;10.506;2022-09-09T07:53:35;5.40;;;1.65;;
32637;SDS011;19045;52.268;10.506;2022-09-09T07:56:04;4.70;;;1.30;;
32637;SDS011;19045;52.268;10.506;2022-09-09T07:58:32;4.97;;;1.38;;
32637;SDS011;19045;52.268;10.506;2022-09-09T08:00:59;8.25;;;1.45;;
32637;SDS011;19045;52.268;10.506;2022-09-09T08:03:27;6.90;;;1.27;;
32637;SDS011;19045;52.268;10.506;2022-09-09T08:05:59;5.70;;;1.17;;
32637;SDS011;19045;52.268;10.506;2022-09-09T08:08:27;4.78;;;1.30;;
32637;SDS011;19045;52.268;10.506;2022-09-09T08:10:57;3.72;;;0.77;;
32637;SDS011;19045;52.268;10.506;2022-09-09T08:13:28;4.05;;;1.27;;
32637;SDS011;19045;52.268;10.506;2022-09-09T08:16:02;5.10;;;0.82;;
32637;SDS011;19045;52.268;10.506;2022-09-09T08:18:32;3.08;;;0.77;;
32637;SDS011;19045;52.268;10.506;2022-09-09T08:21:04;5.43;;;1.13;;
32637;SDS011;19045;52.268;10.506;2022-09-09T08:23:33;3.33;;;0.93;;
32637;SDS011;19045;52.268;10.506;2022-09-09T08:26:03;6.07;;;1.05;;
32637;SDS011;19045;52.268;10.506;2022-09-09T08:28:31;4.50;;;1.10;;
32637;SDS011;19045;52.268;10.506;2022-09-09T08:31:04;4.15;;;1.10;;
32637;SDS011;19045;52.268;10.506;2022-09-09T08:33:33;4.07;;;1.02;;
32637;SDS011;19045;52.268;10.506;2022-09-09T08:36:01;3.47;;;0.80;;
32637;SDS011;19045;52.268;10.506;2022-09-09T08:38:28;5.30;;;0.90;;
32637;SDS011;19045;52.268;10.506;2022-09-09T08:40:56;6.03;;;1.00;;
32637;SDS011;19045;52.268;10.506;2022-09-09T08:43:28;9.00;;;1.20;;
32637;SDS011;19045;52.268;10.506;2022-09-09T08:45:58;5.85;;;1.10;;
32637;SDS011;19045;52.268;10.506;2022-09-09T08:48:37;5.07;;;0.90;;
32637;SDS011;19045;52.268;10.506;2022-09-09T08:51:13;4.93;;;1.08;;
32637;SDS011;19045;52.268;10.506;2022-09-09T08:53:41;6.55;;;1.27;;
32637;SDS011;19045;52.268;10.506;2022-09-09T08:56:12;4.50;;;0.85;;
32637;SDS011;19045;52.268;10.506;2022-09-09T08:58:42;2.30;;;0.90;;
32637;SDS011;19045;52.268;10.506;2022-09-09T09:01:17;3.47;;;1.02;;
32637;SDS011;19045;52.268;10.506;2022-09-09T09:04:00;4.18;;;1.00;;
32637;SDS011;19045;52.268;10.506;2022-09-09T09:06:37;5.40;;;1.20;;
32637;SDS011;19045;52.268;10.506;2022-09-09T09:09:14;3.17;;;0.80;;
32637;SDS011;19045;52.268;10.506;2022-09-09T09:11:50;4.63;;;0.93;;
32637;SDS011;19045;52.268;10.506;2022-09-09T09:14:20;2.60;;;1.25;;
32637;SDS011;19045;52.268;10.506;2022-09-09T09:16:49;4.95;;;1.33;;
32637;SDS011;19045;52.268;10.506;2022-09-09T09:19:20;4.25;;;1.08;;
32637;SDS011;19045;52.268;10.506;2022-09-09T09:21:51;4.55;;;1.45;;
32637;SDS011;19045;52.268;10.506;2022-09-09T09:24:24;4.03;;;1.20;;
32637;SDS011;19045;52.268;10.506;2022-09-09T09:26:57;8.00;;;1.48;;
32637;SDS011;19045;52.268;10.506;2022-09-09T09:29:33;4.18;;;0.90;;
32637;SDS011;19045;52.268;10.506;2022-09-09T09:32:00;4.97;;;0.98;;
32637;SDS011;19045;52.268;10.506;2022-09-09T09:34:31;10.00;;;1.40;;
32637;SDS011;19045;52.268;10.506;2022-09-09T09:36:58;5.80;;;0.98;;
32637;SDS011;19045;52.268;10.506;2022-09-09T09:39:27;4.40;;;1.20;;
32637;SDS011;19045;52.268;10.506;2022-09-09T09:41:55;4.43;;;1.00;;
32637;SDS011;19045;52.268;10.506;2022-09-09T09:44:26;3.67;;;0.85;;
32637;SDS011;19045;52.268;10.506;2022-09-09T09:47:05;4.63;;;0.85;;
32637;SDS011;19045;52.268;10.506;2022-09-09T09:49:34;9.95;;;1.33;;
32637;SDS011;19045;52.268;10.506;2022-09-09T09:52:01;4.78;;;0.77;;
32637;SDS011;19045;52.268;10.506;2022-09-09T09:54:28;3.97;;;1.05;;
32637;SDS011;19045;52.268;10.506;2022-09-09T09:56:56;6.95;;;1.20;;
32637;SDS011;19045;52.268;10.506;2022-09-09T09:59:35;4.28;;;0.80;;
32637;SDS011;19045;52.268;10.506;2022-09-09T10:02:14;5.10;;;1.70;;
32637;SDS011;19045;52.268;10.506;2022-09-09T10:04:44;4.00;;;1.13;;
32637;SDS011;19045;52.268;10.506;2022-09-09T10:07:11;5.68;;;1.15;;
32637;SDS011;19045;52.268;10.506;2022-09-09T10:09:39;4.50;;;1.33;;
32637;SDS011;19045;52.268;10.506;2022-09-09T10:12:08;4.05;;;1.17;;
32637;SDS011;19045;52.268;10.506;2022-09-09T10:14:48;7.57;;;2.03;;
32637;SDS011;19045;52.268;10.506;2022-09-09T10:17:26;4.57;;;0.80;;
32637;SDS011;19045;52.268;10.506;2022-09-09T10:20:06;3.08;;;0.85;;
32637;SDS011;19045;52.268;10.506;2022-09-09T10:22:46;4.38;;;1.02;;
32637;SDS011;19045;52.268;10.506;2022-09-09T10:25:21;3.33;;;0.77;;
32637;SDS011;19045;52.268;10.506;2022-09-09T10:28:02;2.47;;;0.80;;
32637;SDS011;19045;52.268;10.506;2022-09-09T10:30:45;2.88;;;0.90;;
32637;SDS011;19045;52.268;10.506;2022-09-09T10:33:21;4.22;;;0.80;;
32637;SDS011;19045;52.268;10.506;2022-09-09T10:36:00;1.92;;;0.57;;
32637;SDS011;19045;52.268;10.506;2022-09-09T10:38:38;3.78;;;0.90;;
32637;SDS011;19045;52.268;10.506;2022-09-09T10:44:06;4.72;;;1.27;;
32637;SDS011;19045;52.268;10.506;2022-09-09T10:46:47;5.28;;;1.33;;
32637;SDS011;19045;52.268;10.506;2022-09-09T10:49:25;7.50;;;1.30;;
32637;SDS011;19045;52.268;10.506;2022-09-09T10:52:06;4.00;;;1.30;;
32637;SDS011;19045;52.268;10.506;2022-09-09T10:54:42;7.65;;;1.65;;
32637;SDS011;19045;52.268;10.506;2022-09-09T10:57:21;5.80;;;1.48;;
32637;SDS011;19045;52.268;10.506;2022-09-09T10:59:55;4.90;;;1.60;;
32637;SDS011;19045;52.268;10.506;2022-09-09T11:02:26;8.23;;;1.15;;
32637;SDS011;19045;52.268;10.506;2022-09-09T11:04:55;7.63;;;1.60;;
32637;SDS011;19045;52.268;10.506;2022-09-09T11:07:29;6.20;;;2.05;;
32637;SDS011;19045;52.268;10.506;2022-09-09T11:10:04;6.22;;;1.90;;
32637;SDS011;19045;52.268;10.506;2022-09-09T11:12:42;4.90;;;1.60;;
32637;SDS011;19045;52.268;10.506;2022-09-09T11:15:14;8.18;;;2.10;;
32637;SDS011;19045;52.268;10.506;2022-09-09T11:17:46;10.82;;;2.25;;
32637;SDS011;19045;52.268;10.506;2022-09-09T11:20:16;7.72;;;2.20;;
32637;SDS011;19045;52.268;10.506;2022-09-09T11:22:46;6.43;;;1.60;;
32637;SDS011;19045;52.268;10.506;2022-09-09T11:25:17;10.55;;;1.88;;
32637;SDS011;19045;52.268;10.506;2022-09-09T11:27:57;4.43;;;1.08;;
32637;SDS011;19045;52.268;10.506;2022-09-09T11:30:38;5.47;;;1.40;;
32637;SDS011;19045;52.268;10.506;2022-09-09T11:33:22;4.47;;;1.20;;
32637;SDS011;19045;52.268;10.506;2022-09-09T11:36:04;5.80;;;1.10;;
32637;SDS011;19045;52.268;10.506;2022-09-09T11:38:45;6.18;;;0.70;;
32637;SDS011;19045;52.268;10.506;2022-09-09T11:41:15;4.10;;;1.27;;
32637;SDS011;19045;52.268;10.506;2022-09-09T11:43:44;6.20;;;1.13;;
32637;SDS011;19045;52.268;10.506;2022-09-09T11:46:14;5.03;;;1.25;;
32637;SDS011;19045;52.268;10.506;2022-09-09T11:48:43;6.68;;;1.40;;
32637;SDS011;19045;52.268;10.506;2022-09-09T11:51:11;5.18;;;1.23;;
32637;SDS011;19045;52.268;10.506;2022-09-09T11:53:51;3.28;;;0.90;;
32637;SDS011;19045;52.268;10.506;2022-09-09T11:56:26;3.33;;;1.17;;
32637;SDS011;19045;52.268;10.506;2022-09-09T11:58:59;5.03;;;0.93;;
32637;SDS011;19045;52.268;10.506;2022-09-09T12:01:29;3.75;;;0.73;;
32637;SDS011;19045;52.268;10.506;2022-09-09T12:04:05;6.20;;;1.02;;
32637;SDS011;19045;52.268;10.506;2022-09-09T12:06:43;9.95;;;0.85;;
32637;SDS011;19045;52.268;10.506;2022-09-09T12:09:18;6.63;;;1.13;;
32637;SDS011;19045;52.268;10.506;2022-09-09T12:11:49;3.97;;;0.85;;
32637;SDS011;19045;52.268;10.506;2022-09-09T12:14:20;12.25;;;1.30;;
32637;SDS011;19045;52.268;10.506;2022-09-09T12:16:48;3.60;;;1.13;;
32637;SDS011;19045;52.268;10.506;2022-09-09T12:19:16;5.82;;;1.05;;
32637;SDS011;19045;52.268;10.506;2022-09-09T12:21:48;4.28;;;0.90;;
32637;SDS011;19045;52.268;10.506;2022-09-09T12:24:25;5.38;;;1.10;;
32637;SDS011;19045;52.268;10.506;2022-09-09T12:26:59;7.15;;;1.23;;
32637;SDS011;19045;52.268;10.506;2022-09-09T12:29:37;3.92;;;1.30;;
32637;SDS011;19045;52.268;10.506;2022-09-09T12:32:10;7.55;;;1.67;;
32637;SDS011;19045;52.268;10.506;2022-09-09T12:34:39;13.38;;;1.05;;
32637;SDS011;19045;52.268;10.506;2022-09-09T12:37:15;3.50;;;1.00;;
32637;SDS011;19045;52.268;10.506;2022-09-09T12:39:53;8.73;;;1.38;;
32637;SDS011;19045;52.268;10.506;2022-09-09T12:42:22;3.70;;;0.97;;
32637;SDS011;19045;52.268;10.506;2022-09-09T12:44:52;11.07;;;1.40;;
32637;SDS011;19045;52.268;10.506;2022-09-09T12:47:21;3.03;;;0.85;;
32637;SDS011;19045;52.268;10.506;2022-09-09T12:49:52;4.17;;;0.90;;
32637;SDS011;19045;52.268;10.506;2022-09-09T12:52:23;6.82;;;1.60;;
32637;SDS011;19045;52.268;10.506;2022-09-09T12:54:56;4.47;;;1.15;;
32637;SDS011;19045;52.268;10.506;2022-09-09T12:57:25;5.13;;;1.33;;
32637;SDS011;19045;52.268;10.506;2022-09-09T13:00:04;1.67;;;0.70;;
32637;SDS011;19045;52.268;10.506;2022-09-09T13:02:35;6.47;;;1.00;;
32637;SDS011;19045;52.268;10.506;2022-09-09T13:05:13;4.00;;;1.02;;
32637;SDS011;19045;52.268;10.506;2022-09-09T13:07:42;4.65;;;1.02;;
32637;SDS011;19045;52.268;10.506;2022-09-09T13:10:12;5.40;;;1.05;;
32637;SDS011;19045;52.268;10.506;2022-09-09T13:12:39;4.63;;;1.20;;
32637;SDS011;19045;52.268;10.506;2022-09-09T13:15:11;4.00;;;1.00;;
32637;SDS011;19045;52.268;10.506;2022-09-09T13:17:49;3.63;;;0.90;;
32637;SDS011;19045;52.268;10.506;2022-09-09T13:20:18;3.42;;;0.82;;
32637;SDS011;19045;52.268;10.506;2022-09-09T13:22:46;5.47;;;1.40;;
32637;SDS011;19045;52.268;10.506;2022-09-09T13:25:21;4.20;;;0.98;;
32637;SDS011;19045;52.268;10.506;2022-09-09T13:27:51;4.30;;;0.80;;
32637;SDS011;19045;52.268;10.506;2022-09-09T13:30:20;3.00;;;0.73;;
32637;SDS011;19045;52.268;10.506;2022-09-09T13:32:59;5.35;;;1.25;;
32637;SDS011;19045;52.268;10.506;2022-09-09T13:35:27;4.70;;;1.05;;
32637;SDS011;19045;52.268;10.506;2022-09-09T13:37:54;1.95;;;0.68;;
32637;SDS011;19045;52.268;10.506;2022-09-09T13:40:23;3.65;;;1.33;;
32637;SDS011;19045;52.268;10.506;2022-09-09T13:42:51;4.78;;;1.15;;
32637;SDS011;19045;52.268;10.506;2022-09-09T13:45:19;2.17;;;0.63;;
32637;SDS011;19045;52.268;10.506;2022-09-09T13:50:20;4.38;;;0.70;;
32637;SDS011;19045;52.268;10.506;2022-09-09T13:52:48;4.40;;;0.75;;
32637;SDS011;19045;52.268;10.506;2022-09-09T13:55:16;2.30;;;0.68;;
32637;SDS011;19045;52.268;10.506;2022-09-09T13:57:51;3.95;;;0.88;;
32637;SDS011;19045;52.268;10.506;2022-09-09T14:00:18;3.95;;;0.80;;
32637;SDS011;19045;52.268;10.506;2022-09-09T14:02:46;1.35;;;0.57;;
32637;SDS011;19045;52.268;10.506;2022-09-09T14:05:12;2.42;;;0.45;;
32637;SDS011;19045;52.268;10.506;2022-09-09T14:07:40;4.15;;;0.47;;
32637;SDS011;19045;52.268;10.506;2022-09-09T14:10:07;1.73;;;0.88;;
32637;SDS011;19045;52.268;10.506;2022-09-09T14:12:34;2.88;;;0.50;;
32637;SDS011;19045;52.268;10.506;2022-09-09T14:15:03;2.85;;;0.63;;
32637;SDS011;19045;52.268;10.506;2022-09-09T14:17:30;3.00;;;0.70;;
32637;SDS011;19045;52.268;10.506;2022-09-09T14:19:58;4.97;;;0.77;;
32637;SDS011;19045;52.268;10.506;2022-09-09T14:22:25;3.10;;;0.75;;
32637;SDS011;19045;52.268;10.506;2022-09-09T14:24:53;1.58;;;0.60;;
32637;SDS011;19045;52.268;10.506;2022-09-09T14:27:20;3.63;;;0.80;;
32637;SDS011;19045;52.268;10.506;2022-09-09T14:29:46;3.78;;;0.90;;
32637;SDS011;19045;52.268;10.506;2022-09-09T14:32:14;2.53;;;0.63;;
32637;SDS011;19045;52.268;10.506;2022-09-09T14:34:41;3.13;;;0.98;;
32637;SDS011;19045;52.268;10.506;2022-09-09T14:37:07;2.97;;;1.05;;
32637;SDS011;19045;52.268;10.506;2022-09-09T14:39:34;4.40;;;1.00;;
32637;SDS011;19045;52.268;10.506;2022-09-09T14:42:00;3.65;;;1.00;;
32637;SDS011;19045;52.268;10.506;2022-09-09T14:44:27;2.17;;;1.05;;
32637;SDS011;19045;52.268;10.506;2022-09-09T14:46:54;4.20;;;0.85;;
32637;SDS011;19045;52.268;10.506;2022-09-09T14:49:22;3.05;;;0.77;;
32637;SDS011;19045;52.268;10.506;2022-09-09T14:51:49;2.45;;;0.88;;
32637;SDS011;19045;52.268;10.506;2022-09-09T14:54:15;4.10;;;1.15;;
32637;SDS011;19045;52.268;10.506;2022-09-09T14:56:42;2.38;;;1.00;;
32637;SDS011;19045;52.268;10.506;2022-09-09T14:59:09;5.28;;;1.35;;
32637;SDS011;19045;52.268;10.506;2022-09-09T15:01:35;3.40;;;1.25;;
32637;SDS011;19045;52.268;10.506;2022-09-09T15:04:03;2.45;;;0.75;;
32637;SDS011;19045;52.268;10.506;2022-09-09T15:06:33;3.83;;;1.35;;